Terminal Aerodrome Forecast
Issued by NWS Los Angeles, CA

Home | Current Version | Previous Version | Text Only | Print | Product List | Glossary On
Versions: 1 2 3 4 5 6 7 8 9 10 11 12 13 14 15 16 17 18 19 20 21 22
000
FTUS46 KLOX 300500
TAFSMX
TAF
KSMX 300533Z 3006/3106 VRB05KT 6SM BR SCT005
     FM301100 VRB05KT 4SM BR OVC003
     FM301300 VRB03KT 1/2SM FG OVC002
     FM301500 VRB03KT 2SM BR BKN005
     FM301700 30006KT P6SM SKC
     FM302100 30014KT P6SM SKC
     FM310300 VRB05KT P6SM SKC=

USA.gov is the U.S. government's official web portal to all federal, state and local government web resources and services.